CZFM/ZFM METAR and TAF weather

Enter ICAO airport designator
Station Type Date Time Source
CZFM METAR 2021/07/28 20:00 UTC NOAA

CZFM 282000Z 31004KT 280V350 35SM SCT085 20/11 A2980 RMK AC4 SLP094 DENSITY ALT 1000FT


Station Type Date Time Source
CZFM Decoded METAR 2021/07/28 20:00 UTC NOAA

Fort Mcpherson Airport, Canada (CZFM) 67-24N 134-51W
Jul 28, 2021 - 04:00 PM EDT / 2021.07.28 2000 UTC
Wind: from the NW (310 degrees) at 5 MPH (4 KT) (direction variable):0
Visibility: 35 mile(s):0
Sky conditions: partly cloudy
Temperature: 68 F (20 C)
Dew Point: 51 F (11 C)
Relative Humidity: 56%
Pressure (altimeter): 29.8 in. Hg (1009 hPa)
ob: CZFM 282000Z 31004KT 280V350 35SM SCT085 20/11 A2980 RMK AC4 SLP094 DENSITY ALT 1000FT
cycle: 20

Station Type Date Time Source
CZFM TAF 2021/07/28 19:00 UTC NOAA

TAF CZFM 281838Z 2819/2823 26006KT P6SM FEW030 BKN060
TEMPO 2819/2823 P6SM -SHRA BKN030
RMK NXT FCST WILL BE ISSUED AT 291445Z

Example: see airport list